sensor_id;sensor_type;location;lat;lon;timestamp;P1;durP1;ratioP1;P2;durP2;ratioP2
77828;SDS011;67019;51.034;3.728;2023-01-29T00:01:58;56.37;;;29.00;;
77828;SDS011;67019;51.034;3.728;2023-01-29T00:04:26;52.67;;;28.73;;
77828;SDS011;67019;51.034;3.728;2023-01-29T00:06:53;62.17;;;31.87;;
77828;SDS011;67019;51.034;3.728;2023-01-29T00:09:21;58.70;;;32.35;;
77828;SDS011;67019;51.034;3.728;2023-01-29T00:11:48;63.48;;;35.30;;
77828;SDS011;67019;51.034;3.728;2023-01-29T00:14:16;59.27;;;29.82;;
77828;SDS011;67019;51.034;3.728;2023-01-29T00:16:44;67.70;;;35.63;;
77828;SDS011;67019;51.034;3.728;2023-01-29T00:19:12;64.22;;;33.83;;
77828;SDS011;67019;51.034;3.728;2023-01-29T00:21:40;63.87;;;31.77;;
77828;SDS011;67019;51.034;3.728;2023-01-29T00:24:07;62.23;;;34.18;;
77828;SDS011;67019;51.034;3.728;2023-01-29T00:26:36;59.53;;;33.02;;
77828;SDS011;67019;51.034;3.728;2023-01-29T00:29:04;63.08;;;33.40;;
77828;SDS011;67019;51.034;3.728;2023-01-29T00:31:32;60.30;;;34.18;;
77828;SDS011;67019;51.034;3.728;2023-01-29T00:34:00;54.83;;;31.40;;
77828;SDS011;67019;51.034;3.728;2023-01-29T00:36:28;60.83;;;31.87;;
77828;SDS011;67019;51.034;3.728;2023-01-29T00:38:56;60.83;;;34.78;;
77828;SDS011;67019;51.034;3.728;2023-01-29T00:41:28;59.27;;;32.63;;
77828;SDS011;67019;51.034;3.728;2023-01-29T00:44:14;64.05;;;32.67;;
77828;SDS011;67019;51.034;3.728;2023-01-29T00:47:00;64.72;;;32.95;;
77828;SDS011;67019;51.034;3.728;2023-01-29T00:49:28;60.95;;;30.90;;
77828;SDS011;67019;51.034;3.728;2023-01-29T00:51:56;52.95;;;29.87;;
77828;SDS011;67019;51.034;3.728;2023-01-29T00:54:43;61.25;;;31.60;;
77828;SDS011;67019;51.034;3.728;2023-01-29T00:57:11;66.87;;;32.28;;
77828;SDS011;67019;51.034;3.728;2023-01-29T00:59:38;63.98;;;31.60;;
77828;SDS011;67019;51.034;3.728;2023-01-29T01:02:07;61.53;;;32.05;;
77828;SDS011;67019;51.034;3.728;2023-01-29T01:04:52;69.35;;;31.93;;
77828;SDS011;67019;51.034;3.728;2023-01-29T01:07:20;60.75;;;30.75;;
77828;SDS011;67019;51.034;3.728;2023-01-29T01:09:47;61.08;;;30.90;;
77828;SDS011;67019;51.034;3.728;2023-01-29T01:12:33;59.63;;;31.45;;
77828;SDS011;67019;51.034;3.728;2023-01-29T01:15:00;56.13;;;30.43;;
77828;SDS011;67019;51.034;3.728;2023-01-29T01:17:28;59.10;;;30.97;;
77828;SDS011;67019;51.034;3.728;2023-01-29T01:19:55;55.00;;;29.60;;
77828;SDS011;67019;51.034;3.728;2023-01-29T01:22:23;56.40;;;31.07;;
77828;SDS011;67019;51.034;3.728;2023-01-29T01:24:51;57.13;;;28.95;;
77828;SDS011;67019;51.034;3.728;2023-01-29T01:27:18;54.05;;;28.47;;
77828;SDS011;67019;51.034;3.728;2023-01-29T01:29:46;59.83;;;30.70;;
77828;SDS011;67019;51.034;3.728;2023-01-29T01:32:14;60.40;;;30.25;;
77828;SDS011;67019;51.034;3.728;2023-01-29T01:34:42;57.60;;;29.90;;
77828;SDS011;67019;51.034;3.728;2023-01-29T01:37:12;60.00;;;30.82;;
77828;SDS011;67019;51.034;3.728;2023-01-29T01:39:40;62.58;;;26.20;;
77828;SDS011;67019;51.034;3.728;2023-01-29T01:42:13;52.85;;;26.57;;
77828;SDS011;67019;51.034;3.728;2023-01-29T01:47:26;56.58;;;29.48;;
77828;SDS011;67019;51.034;3.728;2023-01-29T01:49:58;59.23;;;29.10;;
77828;SDS011;67019;51.034;3.728;2023-01-29T01:54:55;50.15;;;24.45;;
77828;SDS011;67019;51.034;3.728;2023-01-29T01:57:24;50.60;;;26.82;;
77828;SDS011;67019;51.034;3.728;2023-01-29T01:59:56;53.30;;;25.82;;
77828;SDS011;67019;51.034;3.728;2023-01-29T02:02:27;51.30;;;26.37;;
77828;SDS011;67019;51.034;3.728;2023-01-29T02:05:13;49.05;;;25.82;;
77828;SDS011;67019;51.034;3.728;2023-01-29T02:07:58;52.58;;;26.45;;
77828;SDS011;67019;51.034;3.728;2023-01-29T02:10:45;48.42;;;26.52;;
77828;SDS011;67019;51.034;3.728;2023-01-29T02:15:42;49.60;;;25.72;;
77828;SDS011;67019;51.034;3.728;2023-01-29T02:18:12;53.40;;;25.62;;
77828;SDS011;67019;51.034;3.728;2023-01-29T02:20:43;55.67;;;26.30;;
77828;SDS011;67019;51.034;3.728;2023-01-29T02:23:20;52.33;;;26.70;;
77828;SDS011;67019;51.034;3.728;2023-01-29T02:31:28;51.28;;;28.65;;
77828;SDS011;67019;51.034;3.728;2023-01-29T02:34:31;54.18;;;26.25;;
77828;SDS011;67019;51.034;3.728;2023-01-29T02:37:00;52.83;;;26.97;;
77828;SDS011;67019;51.034;3.728;2023-01-29T02:39:46;54.73;;;26.70;;
77828;SDS011;67019;51.034;3.728;2023-01-29T02:42:27;61.40;;;28.60;;
77828;SDS011;67019;51.034;3.728;2023-01-29T02:45:13;54.63;;;25.62;;
77828;SDS011;67019;51.034;3.728;2023-01-29T02:52:53;57.85;;;27.60;;
77828;SDS011;67019;51.034;3.728;2023-01-29T03:01:19;59.93;;;30.57;;
77828;SDS011;67019;51.034;3.728;2023-01-29T03:03:50;54.25;;;28.65;;
77828;SDS011;67019;51.034;3.728;2023-01-29T03:06:23;61.75;;;28.23;;
77828;SDS011;67019;51.034;3.728;2023-01-29T03:08:52;57.90;;;27.22;;
77828;SDS011;67019;51.034;3.728;2023-01-29T03:18:54;57.58;;;26.07;;
77828;SDS011;67019;51.034;3.728;2023-01-29T03:21:39;49.48;;;25.52;;
77828;SDS011;67019;51.034;3.728;2023-01-29T03:24:28;55.45;;;26.00;;
77828;SDS011;67019;51.034;3.728;2023-01-29T03:27:06;47.95;;;24.80;;
77828;SDS011;67019;51.034;3.728;2023-01-29T03:29:52;53.87;;;26.70;;
77828;SDS011;67019;51.034;3.728;2023-01-29T03:32:40;57.60;;;28.05;;
77828;SDS011;67019;51.034;3.728;2023-01-29T03:37:39;49.30;;;25.82;;
77828;SDS011;67019;51.034;3.728;2023-01-29T03:40:09;59.08;;;27.55;;
77828;SDS011;67019;51.034;3.728;2023-01-29T03:42:54;51.88;;;26.85;;
77828;SDS011;67019;51.034;3.728;2023-01-29T03:45:28;47.88;;;24.40;;
77828;SDS011;67019;51.034;3.728;2023-01-29T03:50:36;53.87;;;26.80;;
77828;SDS011;67019;51.034;3.728;2023-01-29T03:58:23;52.60;;;25.72;;
77828;SDS011;67019;51.034;3.728;2023-01-29T04:04:12;52.13;;;27.22;;
77828;SDS011;67019;51.034;3.728;2023-01-29T04:06:10;49.42;;;25.70;;
77828;SDS011;67019;51.034;3.728;2023-01-29T04:08:56;60.63;;;28.23;;
77828;SDS011;67019;51.034;3.728;2023-01-29T04:11:21;54.45;;;25.88;;
77828;SDS011;67019;51.034;3.728;2023-01-29T04:13:50;54.75;;;26.35;;
77828;SDS011;67019;51.034;3.728;2023-01-29T04:16:22;49.98;;;26.97;;
77828;SDS011;67019;51.034;3.728;2023-01-29T04:18:51;53.48;;;26.97;;
77828;SDS011;67019;51.034;3.728;2023-01-29T04:21:20;50.92;;;25.35;;
77828;SDS011;67019;51.034;3.728;2023-01-29T04:23:48;52.08;;;26.00;;
77828;SDS011;67019;51.034;3.728;2023-01-29T04:34:49;49.80;;;25.62;;
77828;SDS011;67019;51.034;3.728;2023-01-29T04:37:41;52.67;;;25.82;;
77828;SDS011;67019;51.034;3.728;2023-01-29T04:40:26;51.08;;;26.60;;
77828;SDS011;67019;51.034;3.728;2023-01-29T04:43:04;46.02;;;25.72;;
77828;SDS011;67019;51.034;3.728;2023-01-29T04:45:43;47.23;;;24.52;;
77828;SDS011;67019;51.034;3.728;2023-01-29T04:48:23;47.05;;;25.17;;
77828;SDS011;67019;51.034;3.728;2023-01-29T04:51:00;50.08;;;26.45;;
77828;SDS011;67019;51.034;3.728;2023-01-29T04:53:36;54.45;;;26.95;;
77828;SDS011;67019;51.034;3.728;2023-01-29T05:01:10;52.58;;;27.93;;
77828;SDS011;67019;51.034;3.728;2023-01-29T05:03:40;51.53;;;26.95;;
77828;SDS011;67019;51.034;3.728;2023-01-29T05:08:37;45.73;;;24.40;;
77828;SDS011;67019;51.034;3.728;2023-01-29T05:11:07;52.67;;;26.68;;
77828;SDS011;67019;51.034;3.728;2023-01-29T05:13:35;51.00;;;26.70;;
77828;SDS011;67019;51.034;3.728;2023-01-29T05:16:09;50.78;;;28.85;;
77828;SDS011;67019;51.034;3.728;2023-01-29T05:18:41;47.58;;;26.23;;
77828;SDS011;67019;51.034;3.728;2023-01-29T05:21:09;52.03;;;25.97;;
77828;SDS011;67019;51.034;3.728;2023-01-29T05:23:37;48.78;;;25.72;;
77828;SDS011;67019;51.034;3.728;2023-01-29T05:26:04;57.35;;;27.93;;
77828;SDS011;67019;51.034;3.728;2023-01-29T05:28:32;47.48;;;26.45;;
77828;SDS011;67019;51.034;3.728;2023-01-29T05:31:00;60.67;;;28.95;;
77828;SDS011;67019;51.034;3.728;2023-01-29T05:33:29;50.43;;;27.60;;
77828;SDS011;67019;51.034;3.728;2023-01-29T05:35:57;56.10;;;28.80;;
77828;SDS011;67019;51.034;3.728;2023-01-29T05:38:25;48.25;;;27.35;;
77828;SDS011;67019;51.034;3.728;2023-01-29T05:40:53;52.27;;;27.70;;
77828;SDS011;67019;51.034;3.728;2023-01-29T05:43:23;58.05;;;28.55;;
77828;SDS011;67019;51.034;3.728;2023-01-29T05:45:54;58.33;;;30.25;;
77828;SDS011;67019;51.034;3.728;2023-01-29T05:48:23;53.13;;;28.83;;
77828;SDS011;67019;51.034;3.728;2023-01-29T05:50:53;54.75;;;27.73;;
77828;SDS011;67019;51.034;3.728;2023-01-29T05:53:22;59.65;;;29.82;;
77828;SDS011;67019;51.034;3.728;2023-01-29T05:55:51;53.20;;;28.12;;
77828;SDS011;67019;51.034;3.728;2023-01-29T05:58:21;59.42;;;29.82;;
77828;SDS011;67019;51.034;3.728;2023-01-29T06:00:49;48.48;;;27.70;;
77828;SDS011;67019;51.034;3.728;2023-01-29T06:03:17;54.35;;;28.90;;
77828;SDS011;67019;51.034;3.728;2023-01-29T06:05:44;57.60;;;29.57;;
77828;SDS011;67019;51.034;3.728;2023-01-29T06:08:12;54.67;;;28.27;;
77828;SDS011;67019;51.034;3.728;2023-01-29T06:10:39;49.53;;;27.07;;
77828;SDS011;67019;51.034;3.728;2023-01-29T06:13:07;52.25;;;27.25;;
77828;SDS011;67019;51.034;3.728;2023-01-29T06:15:35;52.85;;;27.35;;
77828;SDS011;67019;51.034;3.728;2023-01-29T06:18:05;53.98;;;27.95;;
77828;SDS011;67019;51.034;3.728;2023-01-29T06:20:33;58.90;;;30.40;;
77828;SDS011;67019;51.034;3.728;2023-01-29T06:23:00;57.00;;;28.77;;
77828;SDS011;67019;51.034;3.728;2023-01-29T06:25:28;48.95;;;27.27;;
77828;SDS011;67019;51.034;3.728;2023-01-29T06:27:56;51.83;;;26.95;;
77828;SDS011;67019;51.034;3.728;2023-01-29T06:30:25;52.03;;;28.10;;
77828;SDS011;67019;51.034;3.728;2023-01-29T06:32:56;45.03;;;25.48;;
77828;SDS011;67019;51.034;3.728;2023-01-29T06:35:26;49.35;;;26.30;;
77828;SDS011;67019;51.034;3.728;2023-01-29T06:37:54;45.60;;;23.45;;
77828;SDS011;67019;51.034;3.728;2023-01-29T06:40:22;49.10;;;25.37;;
77828;SDS011;67019;51.034;3.728;2023-01-29T06:42:50;50.52;;;26.35;;
77828;SDS011;67019;51.034;3.728;2023-01-29T06:45:17;48.55;;;26.07;;
77828;SDS011;67019;51.034;3.728;2023-01-29T06:47:45;50.48;;;27.85;;
77828;SDS011;67019;51.034;3.728;2023-01-29T06:50:12;46.80;;;25.77;;
77828;SDS011;67019;51.034;3.728;2023-01-29T06:52:40;55.12;;;27.25;;
77828;SDS011;67019;51.034;3.728;2023-01-29T06:55:08;49.00;;;24.77;;
77828;SDS011;67019;51.034;3.728;2023-01-29T06:57:36;51.73;;;27.48;;
77828;SDS011;67019;51.034;3.728;2023-01-29T07:00:03;42.83;;;23.18;;
77828;SDS011;67019;51.034;3.728;2023-01-29T07:02:32;47.48;;;24.67;;
77828;SDS011;67019;51.034;3.728;2023-01-29T07:04:59;43.48;;;24.10;;
77828;SDS011;67019;51.034;3.728;2023-01-29T07:07:27;48.50;;;24.05;;
77828;SDS011;67019;51.034;3.728;2023-01-29T07:09:54;46.60;;;25.70;;
77828;SDS011;67019;51.034;3.728;2023-01-29T07:12:22;48.45;;;26.85;;
77828;SDS011;67019;51.034;3.728;2023-01-29T07:14:50;45.45;;;24.05;;
77828;SDS011;67019;51.034;3.728;2023-01-29T07:17:17;44.15;;;23.40;;
77828;SDS011;67019;51.034;3.728;2023-01-29T07:19:47;46.55;;;22.85;;
77828;SDS011;67019;51.034;3.728;2023-01-29T07:22:14;44.75;;;24.85;;
77828;SDS011;67019;51.034;3.728;2023-01-29T07:24:42;48.87;;;26.00;;
77828;SDS011;67019;51.034;3.728;2023-01-29T07:27:09;41.85;;;22.73;;
77828;SDS011;67019;51.034;3.728;2023-01-29T07:29:37;46.85;;;22.98;;
77828;SDS011;67019;51.034;3.728;2023-01-29T07:32:05;45.65;;;23.67;;
77828;SDS011;67019;51.034;3.728;2023-01-29T07:34:32;40.43;;;21.87;;
77828;SDS011;67019;51.034;3.728;2023-01-29T07:37:00;43.30;;;23.95;;
77828;SDS011;67019;51.034;3.728;2023-01-29T07:39:28;44.77;;;23.98;;
77828;SDS011;67019;51.034;3.728;2023-01-29T07:41:55;40.63;;;23.00;;
77828;SDS011;67019;51.034;3.728;2023-01-29T07:44:24;46.88;;;22.35;;
77828;SDS011;67019;51.034;3.728;2023-01-29T07:46:53;42.90;;;24.95;;
77828;SDS011;67019;51.034;3.728;2023-01-29T07:49:21;43.30;;;22.93;;
77828;SDS011;67019;51.034;3.728;2023-01-29T07:51:49;47.80;;;23.65;;
77828;SDS011;67019;51.034;3.728;2023-01-29T07:54:16;44.93;;;23.65;;
77828;SDS011;67019;51.034;3.728;2023-01-29T07:56:44;45.60;;;22.32;;
77828;SDS011;67019;51.034;3.728;2023-01-29T07:59:11;45.12;;;24.60;;
77828;SDS011;67019;51.034;3.728;2023-01-29T08:01:39;42.33;;;21.93;;
77828;SDS011;67019;51.034;3.728;2023-01-29T08:04:09;41.13;;;23.00;;
77828;SDS011;67019;51.034;3.728;2023-01-29T08:06:37;49.88;;;23.52;;
77828;SDS011;67019;51.034;3.728;2023-01-29T08:09:05;45.25;;;20.32;;
77828;SDS011;67019;51.034;3.728;2023-01-29T08:11:33;39.13;;;21.77;;
77828;SDS011;67019;51.034;3.728;2023-01-29T08:14:01;41.08;;;23.65;;
77828;SDS011;67019;51.034;3.728;2023-01-29T08:16:28;40.85;;;20.68;;
77828;SDS011;67019;51.034;3.728;2023-01-29T08:18:56;43.90;;;25.50;;
77828;SDS011;67019;51.034;3.728;2023-01-29T08:21:32;42.40;;;22.10;;
77828;SDS011;67019;51.034;3.728;2023-01-29T08:24:00;43.75;;;21.50;;
77828;SDS011;67019;51.034;3.728;2023-01-29T08:26:27;40.52;;;20.77;;
77828;SDS011;67019;51.034;3.728;2023-01-29T08:28:55;40.73;;;22.48;;
77828;SDS011;67019;51.034;3.728;2023-01-29T08:31:23;45.92;;;22.15;;
77828;SDS011;67019;51.034;3.728;2023-01-29T08:33:52;45.60;;;21.80;;
77828;SDS011;67019;51.034;3.728;2023-01-29T08:36:21;32.60;;;17.67;;
77828;SDS011;67019;51.034;3.728;2023-01-29T08:38:51;42.93;;;21.15;;
77828;SDS011;67019;51.034;3.728;2023-01-29T08:41:18;46.13;;;21.93;;
77828;SDS011;67019;51.034;3.728;2023-01-29T08:43:46;38.60;;;21.07;;
77828;SDS011;67019;51.034;3.728;2023-01-29T08:46:14;47.60;;;23.98;;
77828;SDS011;67019;51.034;3.728;2023-01-29T08:48:41;42.65;;;20.97;;
77828;SDS011;67019;51.034;3.728;2023-01-29T08:51:09;42.40;;;22.85;;
77828;SDS011;67019;51.034;3.728;2023-01-29T08:53:36;38.85;;;19.35;;
77828;SDS011;67019;51.034;3.728;2023-01-29T08:56:04;33.58;;;16.85;;
77828;SDS011;67019;51.034;3.728;2023-01-29T08:58:32;43.30;;;19.82;;
77828;SDS011;67019;51.034;3.728;2023-01-29T09:01:06;48.05;;;24.20;;
77828;SDS011;67019;51.034;3.728;2023-01-29T09:03:35;42.93;;;22.75;;
77828;SDS011;67019;51.034;3.728;2023-01-29T09:06:04;40.10;;;20.95;;
77828;SDS011;67019;51.034;3.728;2023-01-29T09:08:32;51.77;;;24.05;;
77828;SDS011;67019;51.034;3.728;2023-01-29T09:11:00;42.78;;;22.95;;
77828;SDS011;67019;51.034;3.728;2023-01-29T09:13:28;43.80;;;20.75;;
77828;SDS011;67019;51.034;3.728;2023-01-29T09:16:04;40.30;;;22.25;;
77828;SDS011;67019;51.034;3.728;2023-01-29T09:18:28;43.38;;;22.05;;
77828;SDS011;67019;51.034;3.728;2023-01-29T09:20:57;40.08;;;20.75;;
77828;SDS011;67019;51.034;3.728;2023-01-29T09:23:24;41.65;;;20.77;;
77828;SDS011;67019;51.034;3.728;2023-01-29T09:25:52;42.20;;;21.23;;
77828;SDS011;67019;51.034;3.728;2023-01-29T09:28:20;41.75;;;20.27;;
77828;SDS011;67019;51.034;3.728;2023-01-29T09:30:47;36.95;;;20.35;;
77828;SDS011;67019;51.034;3.728;2023-01-29T09:33:15;37.45;;;20.10;;
77828;SDS011;67019;51.034;3.728;2023-01-29T09:35:43;41.00;;;22.85;;
77828;SDS011;67019;51.034;3.728;2023-01-29T09:38:12;39.90;;;20.75;;
77828;SDS011;67019;51.034;3.728;2023-01-29T09:40:57;52.25;;;25.17;;
77828;SDS011;67019;51.034;3.728;2023-01-29T09:43:44;39.58;;;22.20;;
77828;SDS011;67019;51.034;3.728;2023-01-29T09:46:20;44.05;;;22.42;;
77828;SDS011;67019;51.034;3.728;2023-01-29T09:48:56;39.67;;;21.33;;
77828;SDS011;67019;51.034;3.728;2023-01-29T09:51:25;39.63;;;21.75;;
77828;SDS011;67019;51.034;3.728;2023-01-29T09:53:57;37.80;;;20.12;;
77828;SDS011;67019;51.034;3.728;2023-01-29T09:56:29;27.70;;;15.28;;
77828;SDS011;67019;51.034;3.728;2023-01-29T09:58:57;36.45;;;19.50;;
77828;SDS011;67019;51.034;3.728;2023-01-29T10:01:47;41.83;;;21.87;;
77828;SDS011;67019;51.034;3.728;2023-01-29T10:07:09;41.48;;;20.90;;
77828;SDS011;67019;51.034;3.728;2023-01-29T10:15:23;32.17;;;19.02;;
77828;SDS011;67019;51.034;3.728;2023-01-29T10:18:12;39.48;;;21.73;;
77828;SDS011;67019;51.034;3.728;2023-01-29T10:23:22;37.63;;;19.62;;
77828;SDS011;67019;51.034;3.728;2023-01-29T10:25:52;37.88;;;19.40;;
77828;SDS011;67019;51.034;3.728;2023-01-29T10:28:33;42.08;;;20.65;;
77828;SDS011;67019;51.034;3.728;2023-01-29T10:31:07;35.73;;;19.55;;
77828;SDS011;67019;51.034;3.728;2023-01-29T10:33:38;45.90;;;22.90;;
77828;SDS011;67019;51.034;3.728;2023-01-29T10:36:11;32.53;;;18.67;;
77828;SDS011;67019;51.034;3.728;2023-01-29T11:08:22;39.40;;;21.33;;
77828;SDS011;67019;51.034;3.728;2023-01-29T11:11:07;44.10;;;21.48;;
77828;SDS011;67019;51.034;3.728;2023-01-29T11:14:02;34.15;;;17.95;;
77828;SDS011;67019;51.034;3.728;2023-01-29T11:16:43;37.38;;;19.70;;
77828;SDS011;67019;51.034;3.728;2023-01-29T11:19:12;34.85;;;19.92;;
77828;SDS011;67019;51.034;3.728;2023-01-29T11:24:21;34.85;;;18.10;;
77828;SDS011;67019;51.034;3.728;2023-01-29T11:26:50;48.38;;;19.48;;
77828;SDS011;67019;51.034;3.728;2023-01-29T11:32:01;33.83;;;19.50;;
77828;SDS011;67019;51.034;3.728;2023-01-29T11:34:35;40.20;;;21.68;;
77828;SDS011;67019;51.034;3.728;2023-01-29T11:37:04;33.88;;;17.92;;
77828;SDS011;67019;51.034;3.728;2023-01-29T11:42:04;31.10;;;17.48;;
77828;SDS011;67019;51.034;3.728;2023-01-29T11:44:34;34.13;;;19.23;;
77828;SDS011;67019;51.034;3.728;2023-01-29T11:49:35;31.97;;;16.17;;
77828;SDS011;67019;51.034;3.728;2023-01-29T11:52:08;30.30;;;17.30;;
77828;SDS011;67019;51.034;3.728;2023-01-29T11:54:44;26.80;;;15.85;;
77828;SDS011;67019;51.034;3.728;2023-01-29T12:00:01;30.20;;;15.48;;
77828;SDS011;67019;51.034;3.728;2023-01-29T12:02:35;24.63;;;12.07;;
77828;SDS011;67019;51.034;3.728;2023-01-29T12:05:19;31.00;;;17.92;;
77828;SDS011;67019;51.034;3.728;2023-01-29T12:07:52;21.80;;;12.47;;
77828;SDS011;67019;51.034;3.728;2023-01-29T12:10:33;30.80;;;17.50;;
77828;SDS011;67019;51.034;3.728;2023-01-29T12:13:04;31.55;;;15.85;;
77828;SDS011;67019;51.034;3.728;2023-01-29T12:15:38;26.48;;;15.85;;
77828;SDS011;67019;51.034;3.728;2023-01-29T12:21:01;22.95;;;12.13;;
77828;SDS011;67019;51.034;3.728;2023-01-29T12:26:35;26.60;;;16.52;;
77828;SDS011;67019;51.034;3.728;2023-01-29T12:34:36;33.42;;;15.55;;
77828;SDS011;67019;51.034;3.728;2023-01-29T12:37:21;23.02;;;13.43;;
77828;SDS011;67019;51.034;3.728;2023-01-29T12:40:11;28.77;;;15.28;;
77828;SDS011;67019;51.034;3.728;2023-01-29T12:42:40;22.10;;;11.08;;
77828;SDS011;67019;51.034;3.728;2023-01-29T12:45:20;30.52;;;15.53;;
77828;SDS011;67019;51.034;3.728;2023-01-29T12:47:54;32.67;;;18.55;;
77828;SDS011;67019;51.034;3.728;2023-01-29T12:50:28;27.58;;;15.63;;
77828;SDS011;67019;51.034;3.728;2023-01-29T12:53:03;39.05;;;15.15;;
77828;SDS011;67019;51.034;3.728;2023-01-29T12:58:08;32.30;;;17.27;;
77828;SDS011;67019;51.034;3.728;2023-01-29T13:00:33;34.43;;;16.50;;
77828;SDS011;67019;51.034;3.728;2023-01-29T13:03:07;29.50;;;18.30;;
77828;SDS011;67019;51.034;3.728;2023-01-29T13:05:46;28.40;;;16.70;;
77828;SDS011;67019;51.034;3.728;2023-01-29T13:08:14;31.77;;;16.70;;
77828;SDS011;67019;51.034;3.728;2023-01-29T13:10:45;31.20;;;17.85;;
77828;SDS011;67019;51.034;3.728;2023-01-29T13:13:33;33.78;;;17.00;;
77828;SDS011;67019;51.034;3.728;2023-01-29T13:16:09;32.55;;;16.85;;
77828;SDS011;67019;51.034;3.728;2023-01-29T13:18:53;30.55;;;16.15;;
77828;SDS011;67019;51.034;3.728;2023-01-29T13:21:36;29.75;;;16.40;;
77828;SDS011;67019;51.034;3.728;2023-01-29T13:24:14;30.10;;;17.87;;
77828;SDS011;67019;51.034;3.728;2023-01-29T13:26:47;35.13;;;18.07;;
77828;SDS011;67019;51.034;3.728;2023-01-29T13:29:25;35.52;;;19.15;;
77828;SDS011;67019;51.034;3.728;2023-01-29T13:31:55;35.50;;;18.30;;
77828;SDS011;67019;51.034;3.728;2023-01-29T13:34:32;36.38;;;18.67;;
77828;SDS011;67019;51.034;3.728;2023-01-29T13:37:15;36.42;;;20.97;;
77828;SDS011;67019;51.034;3.728;2023-01-29T13:39:39;49.67;;;18.12;;
77828;SDS011;67019;51.034;3.728;2023-01-29T13:44:47;39.50;;;21.90;;
77828;SDS011;67019;51.034;3.728;2023-01-29T13:47:20;33.08;;;18.32;;
77828;SDS011;67019;51.034;3.728;2023-01-29T13:49:59;43.33;;;19.80;;
77828;SDS011;67019;51.034;3.728;2023-01-29T13:52:42;35.43;;;18.82;;
77828;SDS011;67019;51.034;3.728;2023-01-29T13:57:50;36.45;;;20.25;;
77828;SDS011;67019;51.034;3.728;2023-01-29T14:13:45;35.23;;;18.87;;
77828;SDS011;67019;51.034;3.728;2023-01-29T14:23:44;37.93;;;19.52;;
77828;SDS011;67019;51.034;3.728;2023-01-29T14:26:26;30.57;;;15.70;;
77828;SDS011;67019;51.034;3.728;2023-01-29T14:31:56;33.02;;;17.75;;
77828;SDS011;67019;51.034;3.728;2023-01-29T14:39:48;36.50;;;19.85;;
77828;SDS011;67019;51.034;3.728;2023-01-29T14:42:21;38.15;;;21.37;;
77828;SDS011;67019;51.034;3.728;2023-01-29T14:49:55;35.70;;;19.92;;
77828;SDS011;67019;51.034;3.728;2023-01-29T14:52:46;35.73;;;20.88;;
77828;SDS011;67019;51.034;3.728;2023-01-29T14:55:14;40.05;;;21.68;;
77828;SDS011;67019;51.034;3.728;2023-01-29T14:57:43;35.28;;;20.43;;
77828;SDS011;67019;51.034;3.728;2023-01-29T15:00:45;36.33;;;20.50;;
77828;SDS011;67019;51.034;3.728;2023-01-29T15:03:03;30.90;;;17.42;;
77828;SDS011;67019;51.034;3.728;2023-01-29T15:05:34;35.38;;;19.17;;
77828;SDS011;67019;51.034;3.728;2023-01-29T15:10:41;41.45;;;21.45;;
77828;SDS011;67019;51.034;3.728;2023-01-29T15:15:51;42.10;;;22.07;;
77828;SDS011;67019;51.034;3.728;2023-01-29T15:21:16;34.70;;;20.45;;
77828;SDS011;67019;51.034;3.728;2023-01-29T15:23:45;32.95;;;19.20;;
77828;SDS011;67019;51.034;3.728;2023-01-29T15:26:22;36.77;;;17.45;;
77828;SDS011;67019;51.034;3.728;2023-01-29T15:28:53;33.73;;;19.00;;
77828;SDS011;67019;51.034;3.728;2023-01-29T15:31:22;37.42;;;19.62;;
77828;SDS011;67019;51.034;3.728;2023-01-29T15:33:51;32.23;;;18.92;;
77828;SDS011;67019;51.034;3.728;2023-01-29T15:36:21;26.25;;;16.48;;
77828;SDS011;67019;51.034;3.728;2023-01-29T15:42:03;33.75;;;15.25;;
77828;SDS011;67019;51.034;3.728;2023-01-29T15:44:44;34.30;;;18.30;;
77828;SDS011;67019;51.034;3.728;2023-01-29T15:49:41;28.75;;;16.55;;
77828;SDS011;67019;51.034;3.728;2023-01-29T15:52:15;33.48;;;19.65;;
77828;SDS011;67019;51.034;3.728;2023-01-29T15:54:40;35.00;;;16.37;;
77828;SDS011;67019;51.034;3.728;2023-01-29T15:57:12;34.13;;;16.80;;
77828;SDS011;67019;51.034;3.728;2023-01-29T15:59:53;31.50;;;18.00;;
77828;SDS011;67019;51.034;3.728;2023-01-29T16:02:31;27.55;;;16.95;;
77828;SDS011;67019;51.034;3.728;2023-01-29T16:05:06;31.17;;;18.12;;
77828;SDS011;67019;51.034;3.728;2023-01-29T16:07:39;37.28;;;17.65;;
77828;SDS011;67019;51.034;3.728;2023-01-29T16:10:21;33.33;;;17.48;;
77828;SDS011;67019;51.034;3.728;2023-01-29T16:12:51;36.75;;;19.40;;
77828;SDS011;67019;51.034;3.728;2023-01-29T16:15:30;31.42;;;18.55;;
77828;SDS011;67019;51.034;3.728;2023-01-29T16:17:57;36.38;;;19.35;;
77828;SDS011;67019;51.034;3.728;2023-01-29T16:20:30;37.10;;;19.23;;
77828;SDS011;67019;51.034;3.728;2023-01-29T16:23:02;38.15;;;20.62;;
77828;SDS011;67019;51.034;3.728;2023-01-29T16:25:32;40.73;;;18.10;;
77828;SDS011;67019;51.034;3.728;2023-01-29T16:28:03;35.65;;;20.72;;
77828;SDS011;67019;51.034;3.728;2023-01-29T16:30:32;36.33;;;21.30;;
77828;SDS011;67019;51.034;3.728;2023-01-29T16:33:00;34.90;;;17.17;;
77828;SDS011;67019;51.034;3.728;2023-01-29T16:35:30;33.28;;;18.35;;
77828;SDS011;67019;51.034;3.728;2023-01-29T16:38:00;35.68;;;16.77;;
77828;SDS011;67019;51.034;3.728;2023-01-29T16:40:33;36.73;;;18.73;;
77828;SDS011;67019;51.034;3.728;2023-01-29T16:46:03;40.35;;;20.95;;
77828;SDS011;67019;51.034;3.728;2023-01-29T16:48:32;37.88;;;18.20;;
77828;SDS011;67019;51.034;3.728;2023-01-29T16:51:04;35.70;;;19.75;;
77828;SDS011;67019;51.034;3.728;2023-01-29T16:53:34;34.63;;;17.80;;
77828;SDS011;67019;51.034;3.728;2023-01-29T16:56:03;32.40;;;17.80;;
77828;SDS011;67019;51.034;3.728;2023-01-29T16:58:33;25.68;;;13.75;;
77828;SDS011;67019;51.034;3.728;2023-01-29T17:01:06;37.83;;;19.52;;
77828;SDS011;67019;51.034;3.728;2023-01-29T17:03:35;33.63;;;20.25;;
77828;SDS011;67019;51.034;3.728;2023-01-29T17:06:08;36.13;;;20.72;;
77828;SDS011;67019;51.034;3.728;2023-01-29T17:08:40;40.45;;;20.45;;
77828;SDS011;67019;51.034;3.728;2023-01-29T17:11:08;38.02;;;20.55;;
77828;SDS011;67019;51.034;3.728;2023-01-29T17:13:41;38.48;;;20.50;;
77828;SDS011;67019;51.034;3.728;2023-01-29T17:16:14;37.48;;;19.65;;
77828;SDS011;67019;51.034;3.728;2023-01-29T17:18:53;38.25;;;19.65;;
77828;SDS011;67019;51.034;3.728;2023-01-29T17:21:20;40.43;;;20.95;;
77828;SDS011;67019;51.034;3.728;2023-01-29T17:23:48;37.98;;;19.57;;
77828;SDS011;67019;51.034;3.728;2023-01-29T17:26:16;38.90;;;20.72;;
77828;SDS011;67019;51.034;3.728;2023-01-29T17:28:47;37.48;;;22.07;;
77828;SDS011;67019;51.034;3.728;2023-01-29T17:31:16;43.95;;;23.27;;
77828;SDS011;67019;51.034;3.728;2023-01-29T17:33:43;36.50;;;20.27;;
77828;SDS011;67019;51.034;3.728;2023-01-29T17:36:12;38.08;;;19.35;;
77828;SDS011;67019;51.034;3.728;2023-01-29T17:38:42;42.67;;;23.47;;
77828;SDS011;67019;51.034;3.728;2023-01-29T17:41:30;48.20;;;23.42;;
77828;SDS011;67019;51.034;3.728;2023-01-29T17:43:55;43.58;;;23.92;;
77828;SDS011;67019;51.034;3.728;2023-01-29T17:46:23;42.33;;;25.00;;
77828;SDS011;67019;51.034;3.728;2023-01-29T17:48:52;42.88;;;22.45;;
77828;SDS011;67019;51.034;3.728;2023-01-29T17:51:19;49.55;;;24.95;;
77828;SDS011;67019;51.034;3.728;2023-01-29T17:53:47;44.63;;;22.62;;